createdAt,value
2023-04-27T00:00:39.451Z,38.76
2023-04-27T00:03:42.284Z,38.73
2023-04-27T00:06:44.614Z,38.85
2023-04-27T00:09:47.190Z,39.03
2023-04-27T00:12:49.340Z,38.99
2023-04-27T00:15:51.542Z,39.26
2023-04-27T00:18:54.107Z,39.26
2023-04-27T00:21:57.990Z,38.96
2023-04-27T00:25:00.146Z,39.00
2023-04-27T00:28:02.369Z,38.74
2023-04-27T00:31:04.679Z,38.86
2023-04-27T00:34:06.904Z,38.94
2023-04-27T00:37:09.126Z,39.02
2023-04-27T00:40:11.953Z,39.21
2023-04-27T00:43:14.713Z,39.30
2023-04-27T00:46:17.389Z,38.92
2023-04-27T00:49:23.757Z,38.95
2023-04-27T00:52:26.014Z,38.97
2023-04-27T00:55:28.282Z,39.34
2023-04-27T00:58:30.602Z,38.62
2023-04-27T01:01:34.193Z,38.35
2023-04-27T01:04:37.075Z,38.63
2023-04-27T01:07:40.223Z,38.44
2023-04-27T01:10:42.395Z,38.63
2023-04-27T01:13:46.272Z,38.46
2023-04-27T01:16:48.640Z,38.72
2023-04-27T01:19:51.529Z,38.21
2023-04-27T01:22:53.740Z,38.56
2023-04-27T01:25:55.933Z,37.88
2023-04-27T01:28:58.107Z,38.48
2023-04-27T01:32:02.477Z,38.03
2023-04-27T01:35:05.754Z,38.22
2023-04-27T01:38:08.231Z,38.41
2023-04-27T01:41:10.952Z,38.42
2023-04-27T01:44:13.184Z,38.22
2023-04-27T01:47:17.231Z,38.49
2023-04-27T01:50:19.862Z,38.59
2023-04-27T01:53:22.053Z,39.07
2023-04-27T01:56:24.563Z,39.26
2023-04-27T01:59:26.830Z,39.39
2023-04-27T02:02:29.264Z,39.70
2023-04-27T02:05:31.834Z,39.74
2023-04-27T02:08:34.954Z,39.64
2023-04-27T02:11:37.174Z,40.00
2023-04-27T02:14:39.478Z,40.01
2023-04-27T02:17:41.687Z,40.14
2023-04-27T02:20:44.354Z,39.97
2023-04-27T02:23:46.710Z,39.70
2023-04-27T02:26:48.966Z,39.64
2023-04-27T02:29:51.486Z,39.47
2023-04-27T02:32:54.606Z,40.52
2023-04-27T02:35:56.897Z,40.20
2023-04-27T02:38:59.065Z,40.18
2023-04-27T02:42:02.883Z,39.84
2023-04-27T02:45:07.112Z,39.84
2023-04-27T02:48:09.511Z,40.11
2023-04-27T02:51:12.415Z,39.71
2023-04-27T02:54:14.608Z,39.85
2023-04-27T02:57:16.847Z,40.01
2023-04-27T03:00:19.837Z,39.81
2023-04-27T03:03:22.956Z,39.46
2023-04-27T03:06:25.655Z,39.71
2023-04-27T03:09:27.905Z,39.76
2023-04-27T03:12:30.194Z,39.81
2023-04-27T03:15:35.425Z,40.19
2023-04-27T03:18:38.337Z,40.23
2023-04-27T03:21:40.530Z,40.24
2023-04-27T03:24:43.038Z,40.07
2023-04-27T03:27:45.306Z,40.10
2023-04-27T03:30:47.524Z,40.59
2023-04-27T03:33:49.723Z,40.39
2023-04-27T03:36:51.976Z,40.39
2023-04-27T03:39:54.200Z,40.53
2023-04-27T03:42:59.027Z,40.80
2023-04-27T03:46:01.685Z,40.86
2023-04-27T03:49:03.959Z,40.76
2023-04-27T03:52:06.574Z,40.31
2023-04-27T03:55:10.792Z,40.24
2023-04-27T03:58:14.438Z,40.94
2023-04-27T04:01:36.360Z,41.21
2023-04-27T04:04:38.891Z,41.29
2023-04-27T04:07:41.676Z,41.10
2023-04-27T04:10:43.946Z,41.23
2023-04-27T04:13:47.360Z,40.07
2023-04-27T04:16:49.695Z,39.24
2023-04-27T04:19:51.963Z,38.50
2023-04-27T04:22:55.575Z,37.76
2023-04-27T04:25:57.850Z,37.67
2023-04-27T04:29:03.789Z,37.88
2023-04-27T04:32:07.560Z,38.22
2023-04-27T04:35:09.905Z,38.47
2023-04-27T04:38:12.160Z,38.43
2023-04-27T04:41:14.845Z,38.20
2023-04-27T04:44:17.066Z,37.73
2023-04-27T04:47:20.196Z,37.71
2023-04-27T04:50:23.471Z,38.17
2023-04-27T04:53:26.977Z,37.37
2023-04-27T04:56:31.006Z,37.84
2023-04-27T04:59:36.048Z,38.31
2023-04-27T05:02:38.456Z,38.13
2023-04-27T05:05:40.986Z,37.91
2023-04-27T05:08:43.267Z,37.93
2023-04-27T05:11:45.590Z,37.90
2023-04-27T05:14:48.475Z,37.43
2023-04-27T05:17:50.779Z,37.55
2023-04-27T05:20:52.987Z,37.74
2023-04-27T05:23:55.273Z,37.92
2023-04-27T05:26:57.470Z,37.45
2023-04-27T05:29:59.699Z,37.45
2023-04-27T05:33:02.970Z,37.49
2023-04-27T05:36:05.532Z,37.55
2023-04-27T05:39:08.092Z,37.57
2023-04-27T05:42:10.582Z,37.32
2023-04-27T05:45:12.962Z,36.66
2023-04-27T05:48:15.177Z,37.07
2023-04-27T05:51:17.620Z,37.26
2023-04-27T05:54:19.796Z,37.15
2023-04-27T05:57:22.049Z,36.94
2023-04-27T06:00:25.931Z,36.93
2023-04-27T06:03:28.494Z,36.23
2023-04-27T06:06:35.473Z,35.80
2023-04-27T06:09:42.474Z,35.35
2023-04-27T06:12:55.114Z,34.78
2023-04-27T06:15:57.481Z,34.97
2023-04-27T06:19:00.558Z,35.00
2023-04-27T06:22:04.903Z,34.12
2023-04-27T06:25:10.323Z,33.43
2023-04-27T06:28:13.033Z,33.69
2023-04-27T06:31:17.173Z,33.44
2023-04-27T06:34:21.398Z,32.38
2023-04-27T06:37:23.682Z,33.01
2023-04-27T06:40:27.741Z,33.20
2023-04-27T06:43:34.461Z,31.94
2023-04-27T06:46:42.032Z,32.49
2023-04-27T06:49:45.169Z,30.83
2023-04-27T06:52:47.448Z,32.34
2023-04-27T06:55:51.119Z,30.93
2023-04-27T06:58:53.333Z,31.15
2023-04-27T07:01:58.390Z,31.10
2023-04-27T07:05:01.172Z,30.39
2023-04-27T07:08:08.626Z,30.66
2023-04-27T07:11:18.742Z,30.24
2023-04-27T07:14:32.406Z,30.76
2023-04-27T07:17:41.081Z,30.85
2023-04-27T07:20:43.500Z,30.36
2023-04-27T07:23:46.661Z,29.61
2023-04-27T07:26:48.903Z,29.99
2023-04-27T07:29:52.753Z,29.94
2023-04-27T07:32:55.056Z,30.19
2023-04-27T07:35:58.377Z,29.27
2023-04-27T07:39:01.381Z,29.42
2023-04-27T07:42:03.862Z,30.43
2023-04-27T07:45:06.734Z,29.01
2023-04-27T07:48:10.517Z,29.29
2023-04-27T07:51:20.500Z,29.51
2023-04-27T07:54:23.036Z,31.04
2023-04-27T07:57:25.531Z,28.03
2023-04-27T08:00:28.225Z,28.78
2023-04-27T08:03:34.703Z,29.24
2023-04-27T08:06:43.102Z,28.21
2023-04-27T08:09:48.184Z,28.64
2023-04-27T08:12:55.271Z,28.46
2023-04-27T08:16:03.814Z,28.31
2023-04-27T08:19:06.357Z,28.06
2023-04-27T08:22:10.350Z,27.94
2023-04-27T08:25:15.014Z,27.36
2023-04-27T08:28:17.653Z,26.91
2023-04-27T08:31:21.057Z,28.73
2023-04-27T08:34:24.636Z,26.61
2023-04-27T08:37:36.766Z,27.38
2023-04-27T08:40:52.037Z,26.97
2023-04-27T08:43:54.439Z,26.38
2023-04-27T08:46:57.434Z,26.58
2023-04-27T08:50:00.029Z,26.73
2023-04-27T08:53:02.328Z,26.38
2023-04-27T08:56:06.160Z,26.12
2023-04-27T08:59:20.305Z,26.67
2023-04-27T09:02:25.815Z,27.57
2023-04-27T09:05:33.108Z,26.75
2023-04-27T09:08:50.970Z,26.75
2023-04-27T09:11:56.775Z,26.53
2023-04-27T09:15:05.221Z,26.21
2023-04-27T09:18:07.645Z,26.83
2023-04-27T09:21:10.680Z,27.10
2023-04-27T09:24:17.508Z,27.06
2023-04-27T09:27:21.759Z,27.08
2023-04-27T09:30:24.570Z,27.79
2023-04-27T09:33:29.770Z,28.70
2023-04-27T09:36:34.999Z,26.93
2023-04-27T09:39:37.563Z,25.99
2023-04-27T09:42:40.269Z,26.35
2023-04-27T09:45:46.744Z,26.48
2023-04-27T09:48:54.279Z,26.30
2023-04-27T09:51:59.738Z,26.08
2023-04-27T09:56:19.571Z,26.44
2023-04-27T10:01:49.381Z,26.82
2023-04-27T10:04:28.191Z,26.68
2023-04-27T10:07:33.746Z,26.47
2023-04-27T10:10:48.048Z,26.08
2023-04-27T10:13:55.088Z,26.41
2023-04-27T10:16:59.979Z,26.34
2023-04-27T10:20:04.147Z,25.97
2023-04-27T10:23:07.117Z,26.25
2023-04-27T10:26:09.402Z,25.65
2023-04-27T10:29:12.601Z,25.69
2023-04-27T10:32:25.686Z,25.57
2023-04-27T10:35:35.323Z,24.94
2023-04-27T10:38:43.495Z,25.36
2023-04-27T10:41:56.716Z,25.79
2023-04-27T10:44:59.447Z,25.13
2023-04-27T10:48:02.108Z,25.24
2023-04-27T10:51:27.482Z,24.51
2023-04-27T10:54:29.834Z,24.70
2023-04-27T10:57:33.093Z,25.25
2023-04-27T11:00:44.676Z,24.90
2023-04-27T11:03:55.353Z,25.02
2023-04-27T11:06:57.766Z,24.88
2023-04-27T11:10:00.312Z,24.19
2023-04-27T11:13:11.424Z,24.60
2023-04-27T11:16:13.795Z,24.52
2023-04-27T11:19:18.509Z,24.78
2023-04-27T11:22:20.853Z,24.94
2023-04-27T11:25:29.965Z,24.53
2023-04-27T11:28:33.075Z,24.33
2023-04-27T11:31:51.933Z,24.11
2023-04-27T11:35:02.623Z,24.49
2023-04-27T11:38:06.894Z,24.34
2023-04-27T11:41:09.185Z,23.97
2023-04-27T11:44:11.930Z,24.03
2023-04-27T11:47:19.292Z,23.47
2023-04-27T11:50:24.995Z,23.39
2023-04-27T11:53:39.535Z,23.63
2023-04-27T11:56:43.017Z,24.07
2023-04-27T11:59:45.304Z,23.83
2023-04-27T12:02:47.678Z,23.56
2023-04-27T12:05:51.257Z,23.79
2023-04-27T12:08:53.551Z,23.17
2023-04-27T12:11:56.287Z,24.03
2023-04-27T12:14:58.853Z,24.01
2023-04-27T12:18:01.273Z,23.92
2023-04-27T12:21:11.427Z,23.62
2023-04-27T12:24:13.984Z,24.31
2023-04-27T12:27:16.760Z,24.66
2023-04-27T12:30:19.528Z,24.58
2023-04-27T12:33:22.301Z,25.14
2023-04-27T12:36:24.813Z,25.50
2023-04-27T12:39:27.397Z,25.87
2023-04-27T12:42:30.220Z,24.92
2023-04-27T12:45:32.686Z,24.03
2023-04-27T12:48:34.968Z,25.08
2023-04-27T12:51:37.930Z,25.36
2023-04-27T12:54:44.754Z,25.31
2023-04-27T12:57:47.423Z,25.53
2023-04-27T13:00:49.648Z,25.62
2023-04-27T13:03:53.778Z,25.22
2023-04-27T13:06:56.680Z,25.46
2023-04-27T13:09:58.981Z,25.58
2023-04-27T13:13:01.331Z,24.95
2023-04-27T13:16:04.492Z,25.02
2023-04-27T13:19:06.745Z,25.40
2023-04-27T13:22:09.922Z,24.54
2023-04-27T13:25:12.245Z,24.74
2023-04-27T13:28:14.436Z,24.36
2023-04-27T13:31:16.685Z,24.10
2023-04-27T13:34:19.471Z,24.62
2023-04-27T13:37:21.799Z,24.42
2023-04-27T13:40:24.046Z,24.63
2023-04-27T13:43:27.264Z,25.20
2023-04-27T13:46:29.566Z,25.18
2023-04-27T13:49:31.924Z,25.27
2023-04-27T13:52:38.137Z,25.08
2023-04-27T13:55:40.644Z,25.47
2023-04-27T13:58:42.894Z,25.41
2023-04-27T14:01:45.274Z,25.69
2023-04-27T14:04:47.499Z,25.04
2023-04-27T14:07:49.767Z,24.92
2023-04-27T14:10:51.934Z,24.53
2023-04-27T14:13:54.120Z,24.13
2023-04-27T14:16:57.268Z,24.29
2023-04-27T14:19:59.496Z,24.09
2023-04-27T14:23:03.126Z,24.35
2023-04-27T14:26:06.020Z,24.02
2023-04-27T14:29:08.163Z,23.80
2023-04-27T14:32:10.429Z,23.98
2023-04-27T14:35:12.743Z,24.18
2023-04-27T14:38:14.961Z,23.85
2023-04-27T14:41:17.395Z,24.30
2023-04-27T14:44:19.856Z,24.04
2023-04-27T14:47:22.166Z,23.95
2023-04-27T14:50:27.125Z,24.32
2023-04-27T14:53:29.289Z,24.43
2023-04-27T14:56:31.447Z,24.44
2023-04-27T14:59:34.315Z,24.45
2023-04-27T15:02:37.868Z,24.44
2023-04-27T15:05:40.329Z,24.67
2023-04-27T15:08:42.524Z,24.59
2023-04-27T15:11:44.824Z,24.71
2023-04-27T15:14:48.286Z,24.64
2023-04-27T15:17:50.599Z,24.50
2023-04-27T15:20:56.625Z,24.58
2023-04-27T15:23:58.794Z,24.45
2023-04-27T15:27:01.689Z,24.05
2023-04-27T15:30:04.696Z,24.28
2023-04-27T15:33:09.538Z,24.62
2023-04-27T15:36:12.774Z,24.24
2023-04-27T15:39:15.251Z,23.92
2023-04-27T15:42:17.820Z,23.52
2023-04-27T15:45:20.315Z,24.00
2023-04-27T15:48:22.467Z,23.92
2023-04-27T15:51:24.763Z,23.78
2023-04-27T15:54:27.134Z,23.94
2023-04-27T15:57:29.338Z,24.58
2023-04-27T16:00:31.970Z,24.15
2023-04-27T16:03:34.844Z,24.14
2023-04-27T16:06:37.272Z,23.90
2023-04-27T16:09:39.445Z,23.90
2023-04-27T16:12:41.677Z,24.14
2023-04-27T16:15:43.882Z,23.79
2023-04-27T16:18:46.665Z,24.33
2023-04-27T16:21:49.106Z,25.16
2023-04-27T16:24:51.513Z,24.27
2023-04-27T16:27:53.670Z,24.40
2023-04-27T16:30:56.019Z,24.34
2023-04-27T16:33:58.196Z,24.18
2023-04-27T16:37:00.436Z,23.84
2023-04-27T16:40:07.019Z,22.97
2023-04-27T16:43:09.518Z,23.86
2023-04-27T16:46:11.947Z,23.58
2023-04-27T16:49:14.600Z,23.42
2023-04-27T16:52:18.035Z,23.06
2023-04-27T16:55:20.285Z,23.49
2023-04-27T16:58:22.784Z,22.79
2023-04-27T17:01:31.467Z,23.66
2023-04-27T17:04:39.305Z,23.10
2023-04-27T17:07:41.639Z,23.23
2023-04-27T17:10:45.291Z,23.37
2023-04-27T17:13:49.597Z,23.29
2023-04-27T17:16:52.079Z,23.68
2023-04-27T17:19:54.239Z,23.57
2023-04-27T17:22:56.454Z,23.35
2023-04-27T17:25:58.569Z,23.78
2023-04-27T17:29:01.615Z,24.76
2023-04-27T17:32:04.531Z,24.05
2023-04-27T17:35:07.181Z,24.31
2023-04-27T17:38:09.939Z,24.75
2023-04-27T17:41:12.227Z,24.40
2023-04-27T17:44:14.412Z,24.63
2023-04-27T17:47:18.908Z,24.39
2023-04-27T17:50:21.114Z,25.13
2023-04-27T17:53:23.500Z,24.51
2023-04-27T17:56:25.804Z,25.26
2023-04-27T17:59:28.950Z,25.31
2023-04-27T18:02:31.249Z,25.74
2023-04-27T18:05:36.373Z,25.57
2023-04-27T18:08:38.598Z,25.89
2023-04-27T18:11:41.457Z,25.86
2023-04-27T18:14:43.633Z,26.08
2023-04-27T18:17:45.897Z,26.49
2023-04-27T18:20:48.477Z,26.62
2023-04-27T18:23:51.155Z,26.66
2023-04-27T18:26:53.296Z,27.46
2023-04-27T18:29:55.995Z,27.57
2023-04-27T18:32:58.530Z,27.15
2023-04-27T18:36:00.789Z,27.83
2023-04-27T18:39:03.260Z,27.77
2023-04-27T18:42:05.505Z,28.63
2023-04-27T18:45:08.239Z,28.21
2023-04-27T18:48:10.479Z,28.20
2023-04-27T18:51:12.750Z,28.34
2023-04-27T18:54:15.094Z,28.75
2023-04-27T18:57:17.231Z,29.26
2023-04-27T19:00:19.775Z,29.70
2023-04-27T19:03:22.320Z,29.24
2023-04-27T19:06:24.632Z,29.32
2023-04-27T19:09:27.210Z,30.49
2023-04-27T19:12:29.583Z,30.83
2023-04-27T19:15:31.884Z,31.24
2023-04-27T19:18:34.708Z,31.45
2023-04-27T19:21:39.021Z,31.77
2023-04-27T19:24:41.255Z,31.48
2023-04-27T19:27:43.527Z,31.72
2023-04-27T19:30:46.704Z,31.82
2023-04-27T19:40:13.371Z,32.84
2023-04-27T19:43:15.705Z,32.72
2023-04-27T19:46:18.167Z,32.85
2023-04-27T19:49:20.716Z,33.45
2023-04-27T19:52:22.898Z,33.25
2023-04-27T19:55:25.063Z,33.51
2023-04-27T19:58:27.284Z,33.43
2023-04-27T20:01:29.722Z,33.70
2023-04-27T20:04:32.839Z,34.03
2023-04-27T20:07:35.474Z,34.33
2023-04-27T20:10:37.757Z,34.70
2023-04-27T20:13:39.989Z,34.75
2023-04-27T20:16:42.269Z,35.14
2023-04-27T20:19:46.107Z,34.72
2023-04-27T20:22:48.424Z,35.49
2023-04-27T20:25:52.198Z,35.27
2023-04-27T20:28:54.587Z,35.63
2023-04-27T20:31:56.839Z,35.75
2023-04-27T20:35:01.416Z,35.62
2023-04-27T20:38:04.599Z,35.83
2023-04-27T20:41:06.763Z,35.78
2023-04-27T20:44:09.552Z,36.52
2023-04-27T20:47:12.029Z,36.56
2023-04-27T20:50:14.462Z,36.64
2023-04-27T20:53:17.070Z,36.51
2023-04-27T20:56:20.187Z,36.75
2023-04-27T20:59:22.435Z,36.58
2023-04-27T21:02:24.919Z,37.08
2023-04-27T21:05:27.113Z,36.61
2023-04-27T21:08:29.352Z,37.02
2023-04-27T21:11:31.745Z,37.19
2023-04-27T21:14:34.892Z,37.20
2023-04-27T21:17:37.176Z,37.61
2023-04-27T21:20:39.651Z,37.80
2023-04-27T21:23:41.792Z,37.54
2023-04-27T21:26:43.955Z,37.94
2023-04-27T21:29:46.553Z,38.04
2023-04-27T21:32:48.911Z,37.96
2023-04-27T21:35:51.180Z,38.04
2023-04-27T21:38:53.428Z,38.16
2023-04-27T21:41:55.772Z,38.42
2023-04-27T21:44:58.025Z,38.43
2023-04-27T21:48:00.310Z,38.42
2023-04-27T21:51:02.675Z,38.47
2023-04-27T21:54:04.972Z,38.32
2023-04-27T21:57:07.412Z,38.58
2023-04-27T22:00:13.663Z,38.47
2023-04-27T22:03:22.888Z,38.71
2023-04-27T22:06:25.711Z,38.90
2023-04-27T22:09:28.148Z,38.97
2023-04-27T22:12:31.602Z,39.25
2023-04-27T22:15:34.065Z,38.81
2023-04-27T22:18:36.678Z,39.26
2023-04-27T22:21:38.918Z,39.00
2023-04-27T22:24:41.281Z,39.11
2023-04-27T22:27:45.433Z,39.63
2023-04-27T22:30:48.043Z,39.81
2023-04-27T22:33:50.418Z,39.41
2023-04-27T22:36:53.314Z,39.87
2023-04-27T22:39:56.075Z,39.60
2023-04-27T22:42:58.286Z,40.11
2023-04-27T22:46:00.545Z,39.74
2023-04-27T22:49:03.394Z,40.17
2023-04-27T22:52:05.616Z,40.19
2023-04-27T22:55:08.303Z,40.08
2023-04-27T22:58:10.536Z,39.96
2023-04-27T23:01:12.881Z,40.04
2023-04-27T23:04:16.352Z,40.52
2023-04-27T23:07:19.105Z,40.69
2023-04-27T23:10:21.575Z,40.56
2023-04-27T23:13:30.655Z,40.76
2023-04-27T23:16:32.946Z,40.44
2023-04-27T23:19:35.124Z,40.59
2023-04-27T23:22:39.989Z,40.76
2023-04-27T23:25:42.193Z,40.97
2023-04-27T23:28:44.726Z,41.04
2023-04-27T23:31:46.901Z,40.87
2023-04-27T23:34:49.102Z,40.89
2023-04-27T23:37:51.651Z,41.23
2023-04-27T23:40:53.893Z,41.26
2023-04-27T23:43:56.105Z,41.10
2023-04-27T23:46:58.428Z,40.87
2023-04-27T23:50:02.371Z,41.13
2023-04-27T23:53:04.670Z,40.82
2023-04-27T23:56:07.159Z,41.05
2023-04-27T23:59:10.872Z,41.38
